Time;durP1;ratioP1;P1;durP2;ratioP2;P2;SDS_P1;SDS_P2;PMS_P1;PMS_P2;Temp;Humidity;BMP_temperature;BMP_pressure;BME280_temperature;BME280_humidity;BME280_pressure;Samples;Min_cycle;Max_cycle;Signal;HPM_P1;HPM_P2
2024/02/22 00:01:19;;;;;;;5.73;2.00;;;;;;;;;;5051879;28;20419;-78
2024/02/22 00:03:45;;;;;;;5.23;2.97;;;;;;;;;;5052119;28;20840;-78
2024/02/22 00:06:11;;;;;;;5.60;2.30;;;;;;;;;;5052037;28;20475;-81
2024/02/22 00:08:39;;;;;;;7.77;3.00;;;;;;;;;;5051747;28;20906;-78
2024/02/22 00:11:05;;;;;;;5.40;2.43;;;;;;;;;;5052170;28;20488;-81
2024/02/22 00:13:31;;;;;;;6.03;1.30;;;;;;;;;;5052062;28;20472;-81
2024/02/22 00:15:57;;;;;;;6.33;1.80;;;;;;;;;;5051742;28;20406;-79
2024/02/22 00:18:23;;;;;;;3.57;1.43;;;;;;;;;;5052102;28;20914;-79
2024/02/22 00:20:49;;;;;;;10.57;2.37;;;;;;;;;;5051935;28;20494;-79
2024/02/22 00:23:14;;;;;;;6.43;2.50;;;;;;;;;;5051968;28;20977;-78
2024/02/22 00:25:40;;;;;;;4.57;1.47;;;;;;;;;;5051511;28;20414;-77
2024/02/22 00:28:06;;;;;;;3.70;1.90;;;;;;;;;;5051696;28;20426;-77
2024/02/22 00:30:32;;;;;;;4.70;1.80;;;;;;;;;;5051519;28;20620;-77
2024/02/22 00:32:58;;;;;;;5.93;2.03;;;;;;;;;;5034113;28;20512;-77
2024/02/22 00:35:24;;;;;;;2.40;1.60;;;;;;;;;;5050860;28;20502;-77
2024/02/22 00:37:50;;;;;;;5.67;2.03;;;;;;;;;;5051911;28;20426;-77
2024/02/22 00:40:17;;;;;;;7.80;2.87;;;;;;;;;;5033552;28;20435;-77
2024/02/22 00:42:43;;;;;;;7.60;2.37;;;;;;;;;;5051932;28;20423;-78
2024/02/22 00:45:10;;;;;;;4.93;2.63;;;;;;;;;;5034061;28;20430;-78
2024/02/22 00:47:36;;;;;;;6.53;2.40;;;;;;;;;;5057120;28;20418;-78
2024/02/22 00:50:05;;;;;;;4.03;2.20;;;;;;;;;;5061037;28;20497;-77
2024/02/22 00:52:31;;;;;;;8.97;1.87;;;;;;;;;;5061382;28;20849;-77
2024/02/22 00:54:57;;;;;;;6.10;2.40;;;;;;;;;;5062464;28;20414;-77
2024/02/22 00:57:23;;;;;;;6.67;1.53;;;;;;;;;;5065753;28;20409;-78
2024/02/22 00:59:49;;;;;;;6.90;2.33;;;;;;;;;;5063425;28;20954;-78
2024/02/22 01:02:15;;;;;;;2.80;1.57;;;;;;;;;;5064175;28;20425;-78
2024/02/22 01:04:42;;;;;;;7.40;3.30;;;;;;;;;;5064416;28;20420;-77
2024/02/22 01:07:08;;;;;;;8.50;3.50;;;;;;;;;;5064516;28;20172;-79
2024/02/22 01:09:36;;;;;;;6.80;2.53;;;;;;;;;;5063815;28;20982;-79
2024/02/22 01:12:02;;;;;;;5.43;2.60;;;;;;;;;;5065451;28;20413;-78
2024/02/22 01:14:28;;;;;;;5.73;1.73;;;;;;;;;;5064271;28;20422;-77
2024/02/22 01:16:57;;;;;;;5.70;2.30;;;;;;;;;;5063865;28;20493;-76
2024/02/22 01:19:23;;;;;;;4.20;1.70;;;;;;;;;;5059470;28;20423;-77
2024/02/22 01:21:49;;;;;;;5.20;2.50;;;;;;;;;;5064627;28;20893;-78
2024/02/22 01:24:15;;;;;;;6.00;1.87;;;;;;;;;;5064684;28;20422;-78
2024/02/22 01:26:41;;;;;;;6.43;2.00;;;;;;;;;;5063236;28;20412;-77
2024/02/22 01:29:07;;;;;;;4.40;2.80;;;;;;;;;;5064925;28;20749;-78
2024/02/22 01:31:33;;;;;;;5.97;2.27;;;;;;;;;;5062497;28;20496;-75
2024/02/22 01:33:59;;;;;;;5.40;2.23;;;;;;;;;;5054588;28;20474;-77
2024/02/22 01:36:25;;;;;;;3.17;1.90;;;;;;;;;;5054654;28;20875;-77
2024/02/22 01:38:51;;;;;;;8.47;2.40;;;;;;;;;;5054312;28;20446;-77
2024/02/22 01:41:17;;;;;;;6.97;2.83;;;;;;;;;;5054564;28;20969;-77
2024/02/22 01:43:43;;;;;;;5.33;2.30;;;;;;;;;;5054628;28;20431;-78
2024/02/22 01:46:09;;;;;;;10.00;2.93;;;;;;;;;;5054527;28;20415;-79
2024/02/22 01:48:36;;;;;;;7.03;2.70;;;;;;;;;;5053220;28;20433;-78
2024/02/22 01:51:02;;;;;;;7.10;3.07;;;;;;;;;;5054368;28;20407;-78
2024/02/22 01:53:29;;;;;;;7.00;3.30;;;;;;;;;;5054009;28;20469;-79
2024/02/22 01:56:00;;;;;;;6.30;3.40;;;;;;;;;;5053053;28;20420;-78
2024/02/22 01:58:26;;;;;;;5.93;2.40;;;;;;;;;;5054304;28;20404;-78
2024/02/22 02:00:52;;;;;;;6.50;2.67;;;;;;;;;;5054237;28;20420;-78
2024/02/22 02:03:20;;;;;;;6.40;2.97;;;;;;;;;;5054213;28;20759;-79
2024/02/22 02:05:46;;;;;;;8.03;3.10;;;;;;;;;;5053335;28;20411;-78
2024/02/22 02:08:12;;;;;;;5.07;2.33;;;;;;;;;;5053742;28;20406;-81
2024/02/22 02:10:38;;;;;;;5.10;2.37;;;;;;;;;;5053980;28;20479;-79
2024/02/22 02:13:08;;;;;;;8.77;2.57;;;;;;;;;;5053852;28;20481;-79
2024/02/22 02:15:33;;;;;;;8.97;2.93;;;;;;;;;;5053866;28;20407;-79
2024/02/22 02:18:00;;;;;;;4.63;1.93;;;;;;;;;;5053873;28;20416;-78
2024/02/22 02:20:27;;;;;;;4.97;2.37;;;;;;;;;;5053767;28;20767;-79
2024/02/22 02:23:11;;;;;;;5.60;2.70;;;;;;;;;;5053681;28;20419;-78
2024/02/22 02:25:37;;;;;;;8.80;3.13;;;;;;;;;;5053808;28;20411;-79
2024/02/22 02:28:03;;;;;;;5.83;2.70;;;;;;;;;;5053736;28;20887;-78
2024/02/22 02:30:29;;;;;;;3.83;2.20;;;;;;;;;;5053566;28;20463;-79
2024/02/22 02:32:55;;;;;;;9.80;1.73;;;;;;;;;;5053536;28;20881;-80
2024/02/22 02:35:21;;;;;;;8.20;2.67;;;;;;;;;;5053643;28;20908;-81
2024/02/22 02:37:47;;;;;;;7.00;2.87;;;;;;;;;;5052197;28;20514;-79
2024/02/22 02:40:13;;;;;;;5.23;2.80;;;;;;;;;;5053161;28;20416;-79
2024/02/22 02:42:40;;;;;;;6.10;2.77;;;;;;;;;;5053527;28;20179;-78
2024/02/22 02:45:06;;;;;;;6.03;3.13;;;;;;;;;;5053364;28;20418;-80
2024/02/22 02:47:34;;;;;;;4.60;2.70;;;;;;;;;;5053806;28;20419;-78
2024/02/22 02:50:00;;;;;;;8.80;2.87;;;;;;;;;;5055635;28;20809;-78
2024/02/22 02:52:25;;;;;;;5.90;2.70;;;;;;;;;;5053169;28;20625;-77
2024/02/22 02:54:51;;;;;;;4.70;2.73;;;;;;;;;;5052843;28;20174;-78
2024/02/22 02:57:19;;;;;;;7.50;2.70;;;;;;;;;;5053256;28;20183;-78
2024/02/22 02:59:48;;;;;;;7.27;3.53;;;;;;;;;;5053101;28;20422;-78
2024/02/22 03:02:17;;;;;;;5.83;2.73;;;;;;;;;;5053106;28;20415;-78
2024/02/22 03:04:43;;;;;;;8.50;2.70;;;;;;;;;;5053104;28;20768;-78
2024/02/22 03:07:09;;;;;;;3.37;1.90;;;;;;;;;;5053129;28;20468;-80
2024/02/22 03:09:35;;;;;;;4.77;2.87;;;;;;;;;;5052704;28;20890;-79
2024/02/22 03:12:01;;;;;;;4.47;2.60;;;;;;;;;;5052890;28;20410;-77
2024/02/22 03:14:27;;;;;;;6.73;3.13;;;;;;;;;;5052928;28;20779;-77
2024/02/22 03:16:53;;;;;;;7.83;2.50;;;;;;;;;;5052775;28;20887;-77
2024/02/22 03:19:19;;;;;;;5.23;3.00;;;;;;;;;;5051642;28;20187;-77
2024/02/22 03:21:45;;;;;;;7.13;3.37;;;;;;;;;;5052806;28;20500;-78
2024/02/22 03:24:11;;;;;;;4.70;2.47;;;;;;;;;;5052451;28;20506;-77
2024/02/22 03:26:36;;;;;;;3.23;2.10;;;;;;;;;;5051399;28;20961;-78
2024/02/22 03:29:05;;;;;;;8.47;2.97;;;;;;;;;;5052710;28;20518;-81
2024/02/22 03:31:31;;;;;;;7.07;2.17;;;;;;;;;;5052038;28;20900;-77
2024/02/22 03:33:57;;;;;;;6.70;2.50;;;;;;;;;;5052641;28;20480;-80
2024/02/22 03:36:23;;;;;;;7.10;3.87;;;;;;;;;;5052611;28;20465;-80
2024/02/22 03:38:49;;;;;;;4.33;2.80;;;;;;;;;;5052201;28;20468;-76
2024/02/22 03:41:23;;;;;;;4.30;2.90;;;;;;;;;;5052564;28;20422;-77
2024/02/22 03:43:49;;;;;;;4.50;2.27;;;;;;;;;;5051338;28;20407;-79
2024/02/22 03:46:15;;;;;;;7.03;2.97;;;;;;;;;;5052596;28;20400;-76
2024/02/22 03:48:44;;;;;;;8.90;3.20;;;;;;;;;;5051112;28;20481;-76
2024/02/22 03:51:11;;;;;;;5.07;3.30;;;;;;;;;;5052486;28;20439;-76
2024/02/22 03:53:37;;;;;;;6.33;2.70;;;;;;;;;;5051987;28;20511;-80
2024/02/22 03:56:03;;;;;;;5.50;2.67;;;;;;;;;;5051232;28;20418;-77
2024/02/22 03:58:29;;;;;;;4.50;2.80;;;;;;;;;;5052434;28;20180;-76
2024/02/22 04:00:55;;;;;;;4.60;2.40;;;;;;;;;;5052312;28;20406;-76
2024/02/22 04:03:21;;;;;;;3.73;2.20;;;;;;;;;;5052263;28;20426;-80
2024/02/22 04:05:47;;;;;;;4.80;2.70;;;;;;;;;;5052349;28;20419;-77
2024/02/22 04:08:12;;;;;;;5.63;2.97;;;;;;;;;;5050562;28;20415;-77
2024/02/22 04:10:38;;;;;;;3.70;1.90;;;;;;;;;;5052336;28;20995;-78
2024/02/22 04:13:04;;;;;;;4.77;2.50;;;;;;;;;;5052131;28;20467;-77
2024/02/22 04:15:30;;;;;;;3.53;2.20;;;;;;;;;;5052128;28;20412;-79
2024/02/22 04:17:57;;;;;;;4.50;2.73;;;;;;;;;;5052164;28;20412;-78
2024/02/22 04:20:23;;;;;;;3.37;2.20;;;;;;;;;;5052164;28;20949;-77
2024/02/22 04:22:49;;;;;;;4.27;2.70;;;;;;;;;;5051896;28;20490;-76
2024/02/22 04:25:15;;;;;;;5.23;2.30;;;;;;;;;;5052153;28;20511;-77
2024/02/22 04:27:41;;;;;;;4.50;2.53;;;;;;;;;;5052094;28;20502;-80
2024/02/22 04:30:07;;;;;;;4.87;2.53;;;;;;;;;;5054753;28;20443;-81
2024/02/22 04:32:33;;;;;;;3.40;2.00;;;;;;;;;;5055756;28;20519;-79
2024/02/22 04:35:00;;;;;;;5.20;2.10;;;;;;;;;;5055758;28;20416;-77
2024/02/22 04:37:26;;;;;;;4.13;2.33;;;;;;;;;;5055819;28;20771;-77
2024/02/22 04:39:52;;;;;;;3.00;2.23;;;;;;;;;;5055322;28;20420;-78
2024/02/22 04:42:18;;;;;;;4.23;2.17;;;;;;;;;;5055802;28;20188;-77
2024/02/22 04:44:44;;;;;;;3.63;1.80;;;;;;;;;;5055811;28;20416;-78
2024/02/22 04:47:11;;;;;;;3.00;2.07;;;;;;;;;;5055652;28;20437;-78
2024/02/22 04:49:37;;;;;;;3.27;1.90;;;;;;;;;;5055669;28;20404;-77
2024/02/22 04:52:03;;;;;;;4.30;2.53;;;;;;;;;;5055499;28;20451;-78
2024/02/22 04:54:32;;;;;;;4.43;3.10;;;;;;;;;;5055211;28;20174;-78
2024/02/22 04:56:58;;;;;;;4.00;2.13;;;;;;;;;;5055481;28;20415;-78
2024/02/22 04:59:24;;;;;;;2.93;1.63;;;;;;;;;;5055393;28;20821;-79
2024/02/22 05:01:52;;;;;;;2.67;0.90;;;;;;;;;;5054050;28;20500;-77
2024/02/22 05:04:18;;;;;;;5.10;2.20;;;;;;;;;;5055323;28;20412;-77
2024/02/22 05:06:44;;;;;;;5.03;2.20;;;;;;;;;;5055218;28;20412;-79
2024/02/22 05:09:13;;;;;;;4.33;2.10;;;;;;;;;;5054892;28;20420;-77
2024/02/22 05:11:48;;;;;;;3.20;2.27;;;;;;;;;;5055203;28;20205;-78
2024/02/22 05:14:14;;;;;;;2.80;1.13;;;;;;;;;;5054707;28;20483;-78
2024/02/22 05:16:40;;;;;;;2.57;2.00;;;;;;;;;;5055101;28;20423;-78
2024/02/22 05:19:06;;;;;;;3.33;1.93;;;;;;;;;;5055140;28;20815;-78
2024/02/22 05:21:32;;;;;;;3.30;2.40;;;;;;;;;;5055042;28;20494;-78
2024/02/22 05:23:58;;;;;;;4.10;1.63;;;;;;;;;;5054344;28;20562;-78
2024/02/22 05:26:24;;;;;;;3.50;1.40;;;;;;;;;;5053624;28;20791;-77
2024/02/22 05:28:50;;;;;;;3.70;1.63;;;;;;;;;;5054922;28;20177;-78
2024/02/22 05:31:27;;;;;;;3.27;1.20;;;;;;;;;;5054696;28;20577;-78
2024/02/22 05:33:53;;;;;;;2.20;1.13;;;;;;;;;;5054745;28;20473;-78
2024/02/22 05:36:20;;;;;;;3.90;1.87;;;;;;;;;;5054609;28;20416;-79
2024/02/22 05:38:46;;;;;;;2.53;2.17;;;;;;;;;;5054433;28;20220;-79
2024/02/22 05:41:12;;;;;;;3.00;1.43;;;;;;;;;;5053357;28;20499;-77
2024/02/22 05:43:38;;;;;;;2.47;0.73;;;;;;;;;;5054595;28;20440;-78
2024/02/22 05:46:07;;;;;;;2.20;0.83;;;;;;;;;;5054299;28;20445;-78
2024/02/22 05:48:32;;;;;;;2.70;1.50;;;;;;;;;;5063690;28;20415;-77
2024/02/22 05:51:04;;;;;;;2.30;1.00;;;;;;;;;;5063005;28;20408;-77
2024/02/22 05:53:30;;;;;;;2.33;1.90;;;;;;;;;;5061471;28;20525;-78
2024/02/22 05:55:56;;;;;;;2.43;1.00;;;;;;;;;;5064751;28;20410;-77
2024/02/22 05:58:22;;;;;;;2.27;1.43;;;;;;;;;;5063413;28;20839;-77
2024/02/22 06:00:48;;;;;;;1.80;1.10;;;;;;;;;;5063119;28;20407;-77
2024/02/22 06:03:14;;;;;;;1.87;1.03;;;;;;;;;;5064955;28;20411;-78
2024/02/22 06:05:42;;;;;;;3.83;1.67;;;;;;;;;;5062887;28;20776;-78
2024/02/22 06:08:08;;;;;;;3.33;1.43;;;;;;;;;;5062927;28;20422;-80
2024/02/22 06:10:34;;;;;;;2.63;1.20;;;;;;;;;;5061946;28;20900;-83
2024/02/22 06:13:00;;;;;;;4.23;1.70;;;;;;;;;;5053732;28;20464;-81
2024/02/22 06:15:26;;;;;;;2.13;1.30;;;;;;;;;;5056294;28;20515;-79
2024/02/22 06:17:52;;;;;;;2.10;1.77;;;;;;;;;;5053768;28;20432;-82
2024/02/22 06:20:18;;;;;;;1.80;0.97;;;;;;;;;;5052750;28;20519;-79
2024/02/22 06:22:44;;;;;;;2.30;1.27;;;;;;;;;;5053459;28;20439;-80
2024/02/22 06:25:12;;;;;;;2.73;1.40;;;;;;;;;;5053824;28;20925;-80
2024/02/22 06:27:40;;;;;;;2.57;1.33;;;;;;;;;;5053702;28;20404;-79
2024/02/22 06:30:06;;;;;;;3.50;1.50;;;;;;;;;;5052297;28;20455;-79
2024/02/22 06:32:33;;;;;;;2.47;1.27;;;;;;;;;;5053807;28;20980;-79
2024/02/22 06:34:59;;;;;;;3.57;1.40;;;;;;;;;;5053736;28;20420;-79
2024/02/22 06:37:25;;;;;;;2.20;0.97;;;;;;;;;;5053441;28;20449;-80
2024/02/22 06:39:51;;;;;;;2.47;1.00;;;;;;;;;;5052490;28;20441;-79
2024/02/22 06:42:18;;;;;;;1.80;0.87;;;;;;;;;;5053654;28;20404;-79
2024/02/22 06:44:45;;;;;;;3.43;1.63;;;;;;;;;;5053659;28;20444;-79
2024/02/22 06:47:11;;;;;;;2.43;0.83;;;;;;;;;;5053489;28;20408;-78
2024/02/22 06:49:37;;;;;;;3.20;1.13;;;;;;;;;;5053380;28;20467;-79
2024/02/22 06:52:07;;;;;;;2.73;1.23;;;;;;;;;;5052914;28;20504;-80
2024/02/22 06:54:35;;;;;;;2.27;0.90;;;;;;;;;;5053065;28;20519;-78
2024/02/22 06:57:01;;;;;;;2.80;1.50;;;;;;;;;;5053245;28;20905;-79
2024/02/22 06:59:27;;;;;;;2.80;1.47;;;;;;;;;;5053287;28;20765;-78
2024/02/22 07:01:53;;;;;;;3.37;1.50;;;;;;;;;;5053359;28;20416;-78
2024/02/22 07:04:19;;;;;;;2.53;1.03;;;;;;;;;;5052977;28;20416;-77
2024/02/22 07:06:45;;;;;;;2.57;1.20;;;;;;;;;;5053151;28;20893;-78
2024/02/22 07:09:11;;;;;;;1.73;1.20;;;;;;;;;;5052776;28;20412;-78
2024/02/22 07:11:37;;;;;;;3.83;1.60;;;;;;;;;;5053164;28;20813;-79
2024/02/22 07:14:04;;;;;;;1.70;0.70;;;;;;;;;;5052940;28;20475;-78
2024/02/22 07:16:30;;;;;;;2.30;1.40;;;;;;;;;;5053109;28;20408;-79
2024/02/22 07:18:56;;;;;;;1.33;0.60;;;;;;;;;;5052998;28;20976;-80
2024/02/22 07:21:32;;;;;;;2.23;0.77;;;;;;;;;;5052785;28;20454;-79
2024/02/22 07:23:58;;;;;;;1.60;0.47;;;;;;;;;;5051321;28;20429;-78
2024/02/22 07:26:24;;;;;;;2.17;0.70;;;;;;;;;;5052737;28;20413;-78
2024/02/22 07:28:50;;;;;;;1.50;0.73;;;;;;;;;;5052626;28;20750;-78
2024/02/22 07:31:16;;;;;;;2.03;0.67;;;;;;;;;;5052599;28;20565;-80
2024/02/22 07:33:42;;;;;;;2.50;0.90;;;;;;;;;;5052699;28;20967;-77
2024/02/22 07:36:08;;;;;;;2.17;0.50;;;;;;;;;;5051469;28;20905;-77
2024/02/22 07:38:34;;;;;;;1.67;0.93;;;;;;;;;;5052580;28;20441;-78
2024/02/22 07:41:07;;;;;;;3.80;1.70;;;;;;;;;;5052769;28;20805;-77
2024/02/22 07:43:34;;;;;;;2.00;0.77;;;;;;;;;;5052685;28;20958;-78
2024/02/22 07:46:02;;;;;;;1.00;0.43;;;;;;;;;;5052782;28;20436;-77
2024/02/22 07:48:28;;;;;;;4.60;0.93;;;;;;;;;;5052738;28;20417;-76
2024/02/22 07:50:55;;;;;;;1.93;0.63;;;;;;;;;;5052813;28;20411;-80
2024/02/22 07:53:24;;;;;;;1.70;0.93;;;;;;;;;;5052042;28;20574;-79
2024/02/22 07:55:50;;;;;;;1.93;1.13;;;;;;;;;;5051463;28;20424;-81
2024/02/22 07:58:17;;;;;;;2.20;0.80;;;;;;;;;;5053060;28;20425;-78
2024/02/22 08:00:45;;;;;;;1.60;0.90;;;;;;;;;;5052792;28;20425;-79
2024/02/22 08:03:12;;;;;;;2.73;1.20;;;;;;;;;;5035204;28;20508;-78
2024/02/22 08:05:38;;;;;;;2.60;1.10;;;;;;;;;;5056591;28;20455;-79
2024/02/22 08:08:04;;;;;;;3.77;1.20;;;;;;;;;;5057873;28;20408;-79
2024/02/22 08:10:30;;;;;;;2.73;0.87;;;;;;;;;;5057667;28;20783;-77
2024/02/22 08:12:57;;;;;;;2.57;0.57;;;;;;;;;;5056445;28;20474;-81
2024/02/22 08:15:25;;;;;;;1.87;1.33;;;;;;;;;;5056222;28;20413;-83
2024/02/22 08:17:51;;;;;;;2.70;1.47;;;;;;;;;;5056660;28;20761;-78
2024/02/22 08:20:17;;;;;;;3.63;1.30;;;;;;;;;;5038495;28;20401;-76
2024/02/22 08:22:43;;;;;;;2.20;1.03;;;;;;;;;;5055687;28;20898;-76
2024/02/22 08:25:09;;;;;;;1.93;0.97;;;;;;;;;;5055896;28;20412;-75
2024/02/22 08:27:35;;;;;;;3.33;1.60;;;;;;;;;;5054795;28;20880;-78
2024/02/22 08:30:01;;;;;;;3.53;1.57;;;;;;;;;;5055856;28;20203;-78
2024/02/22 08:32:27;;;;;;;3.97;1.57;;;;;;;;;;5056037;28;20264;-76
2024/02/22 08:34:53;;;;;;;3.87;1.70;;;;;;;;;;5055831;28;20443;-76
2024/02/22 08:37:19;;;;;;;3.50;1.60;;;;;;;;;;5055472;28;20167;-78
2024/02/22 08:39:45;;;;;;;4.80;1.07;;;;;;;;;;5055807;28;20413;-76
2024/02/22 08:42:10;;;;;;;3.33;1.33;;;;;;;;;;5054535;28;20424;-77
2024/02/22 08:44:36;;;;;;;3.93;2.70;;;;;;;;;;5055644;28;20428;-78
2024/02/22 08:47:03;;;;;;;3.00;1.57;;;;;;;;;;5055518;28;20408;-79
2024/02/22 08:49:29;;;;;;;3.77;1.73;;;;;;;;;;5054204;28;20431;-75
2024/02/22 08:51:55;;;;;;;2.37;1.87;;;;;;;;;;5054266;28;20413;-77
2024/02/22 08:54:21;;;;;;;7.77;1.30;;;;;;;;;;5053754;28;20496;-76
2024/02/22 08:56:47;;;;;;;3.47;2.90;;;;;;;;;;5055298;28;20423;-76
2024/02/22 08:59:16;;;;;;;3.63;1.67;;;;;;;;;;5055418;28;20171;-76
2024/02/22 09:01:42;;;;;;;3.83;2.07;;;;;;;;;;5055360;28;20171;-77
2024/02/22 09:04:08;;;;;;;3.97;3.10;;;;;;;;;;5055206;28;20553;-77
2024/02/22 09:06:34;;;;;;;3.93;2.10;;;;;;;;;;5054553;28;20453;-78
2024/02/22 09:09:01;;;;;;;4.40;2.40;;;;;;;;;;5054816;28;20507;-78
2024/02/22 09:11:27;;;;;;;4.30;2.17;;;;;;;;;;5055068;28;20413;-76
2024/02/22 09:13:53;;;;;;;5.70;3.30;;;;;;;;;;5054972;28;20473;-80
2024/02/22 09:16:19;;;;;;;3.77;2.40;;;;;;;;;;5054745;28;20175;-76
2024/02/22 09:18:45;;;;;;;4.20;2.37;;;;;;;;;;5054896;28;20179;-77
2024/02/22 09:21:11;;;;;;;5.30;2.63;;;;;;;;;;5054899;28;20410;-78
2024/02/22 09:23:41;;;;;;;4.63;3.10;;;;;;;;;;5054550;28;20803;-77
2024/02/22 09:26:07;;;;;;;5.67;2.43;;;;;;;;;;5055003;28;20248;-77
2024/02/22 09:28:32;;;;;;;3.97;3.00;;;;;;;;;;5054721;28;20427;-78
2024/02/22 09:30:58;;;;;;;5.23;2.80;;;;;;;;;;5054501;28;20275;-79
2024/02/22 09:33:24;;;;;;;4.40;2.87;;;;;;;;;;5054707;28;20532;-79
2024/02/22 09:35:50;;;;;;;3.93;2.57;;;;;;;;;;5054792;28;20403;-78
2024/02/22 09:38:16;;;;;;;4.37;2.33;;;;;;;;;;5054251;28;20417;-81
2024/02/22 09:40:42;;;;;;;5.73;3.60;;;;;;;;;;5053349;28;20908;-77
2024/02/22 09:43:08;;;;;;;4.43;2.67;;;;;;;;;;5054607;28;20180;-77
2024/02/22 09:45:37;;;;;;;3.60;2.43;;;;;;;;;;5054452;28;20416;-77
2024/02/22 09:48:15;;;;;;;4.03;2.60;;;;;;;;;;5054368;28;20424;-78
2024/02/22 09:50:41;;;;;;;5.90;2.23;;;;;;;;;;5054480;28;20404;-78
2024/02/22 09:53:08;;;;;;;3.67;2.47;;;;;;;;;;5054025;28;20790;-79
2024/02/22 09:55:33;;;;;;;3.00;2.50;;;;;;;;;;5053126;28;20427;-78
2024/02/22 09:57:59;;;;;;;3.10;2.23;;;;;;;;;;5054290;28;20422;-78
2024/02/22 10:00:25;;;;;;;3.77;2.20;;;;;;;;;;5053921;28;20450;-77
2024/02/22 10:02:51;;;;;;;4.80;2.30;;;;;;;;;;5054262;28;20176;-80
2024/02/22 10:05:19;;;;;;;4.33;2.53;;;;;;;;;;5054205;28;20446;-80
2024/02/22 10:07:45;;;;;;;4.50;2.77;;;;;;;;;;5053788;28;20176;-78
2024/02/22 10:10:11;;;;;;;4.20;2.23;;;;;;;;;;5054052;28;20823;-78
2024/02/22 10:12:43;;;;;;;4.83;2.17;;;;;;;;;;5053910;28;20463;-78
2024/02/22 10:15:30;;;;;;;4.43;2.30;;;;;;;;;;5054118;28;20454;-82
2024/02/22 10:17:56;;;;;;;2.83;2.20;;;;;;;;;;5036234;28;20415;-79
2024/02/22 10:20:32;;;;;;;3.83;2.50;;;;;;;;;;5053886;28;20773;-78
2024/02/22 10:23:05;;;;;;;3.07;2.13;;;;;;;;;;5053576;28;20812;-78
2024/02/22 10:25:31;;;;;;;1.60;0.77;;;;;;;;;;5053909;28;20404;-78
2024/02/22 10:27:57;;;;;;;2.63;1.60;;;;;;;;;;5053193;28;20406;-78
2024/02/22 10:30:26;;;;;;;2.50;1.53;;;;;;;;;;5058566;28;20823;-80
2024/02/22 10:32:55;;;;;;;2.50;1.23;;;;;;;;;;5072519;28;20521;-80
2024/02/22 10:35:26;;;;;;;2.10;1.10;;;;;;;;;;5074140;28;20412;-78
2024/02/22 10:37:53;;;;;;;2.63;1.63;;;;;;;;;;5073543;28;20809;-79
2024/02/22 10:40:19;;;;;;;2.40;1.30;;;;;;;;;;5072651;28;20427;-79
2024/02/22 10:42:46;;;;;;;2.63;1.63;;;;;;;;;;5073657;28;20537;-79
2024/02/22 10:45:12;;;;;;;1.90;1.40;;;;;;;;;;5073435;28;20443;-79
2024/02/22 10:47:39;;;;;;;3.33;1.60;;;;;;;;;;5073592;28;20418;-78
2024/02/22 10:50:06;;;;;;;2.47;1.60;;;;;;;;;;5073451;28;20972;-79
2024/02/22 10:52:35;;;;;;;2.23;1.23;;;;;;;;;;5073040;28;20425;-80
2024/02/22 10:55:06;;;;;;;1.20;0.50;;;;;;;;;;5073423;28;20403;-78
2024/02/22 10:57:34;;;;;;;2.17;1.03;;;;;;;;;;5073282;28;20416;-77
2024/02/22 11:00:01;;;;;;;2.30;1.80;;;;;;;;;;5073352;28;20475;-77
2024/02/22 11:02:28;;;;;;;2.50;1.60;;;;;;;;;;5055609;28;20403;-79
2024/02/22 11:05:02;;;;;;;3.53;1.73;;;;;;;;;;5072834;28;20412;-78
2024/02/22 11:07:28;;;;;;;2.70;1.67;;;;;;;;;;5072678;28;20610;-78
2024/02/22 11:10:05;;;;;;;4.23;1.80;;;;;;;;;;5071627;28;20442;-77
2024/02/22 11:12:32;;;;;;;4.00;2.03;;;;;;;;;;5072837;28;20933;-77
2024/02/22 11:15:21;;;;;;;4.20;2.63;;;;;;;;;;5072949;28;20436;-80
2024/02/22 11:17:55;;;;;;;4.10;2.30;;;;;;;;;;5067073;28;20403;-78
2024/02/22 11:20:36;;;;;;;5.20;3.40;;;;;;;;;;5073059;28;20418;-77
2024/02/22 11:23:12;;;;;;;6.47;4.13;;;;;;;;;;5072604;28;20407;-78
2024/02/22 11:25:38;;;;;;;5.33;4.17;;;;;;;;;;5072859;28;20766;-77
2024/02/22 11:28:04;;;;;;;5.33;3.50;;;;;;;;;;5072796;28;20427;-79
2024/02/22 11:30:30;;;;;;;7.37;3.63;;;;;;;;;;5061255;28;20805;-78
2024/02/22 11:32:57;;;;;;;7.87;4.60;;;;;;;;;;5052738;28;20836;-79
2024/02/22 11:35:23;;;;;;;8.10;4.57;;;;;;;;;;5035045;28;20420;-78
2024/02/22 11:37:58;;;;;;;9.20;5.30;;;;;;;;;;5052305;28;20427;-79
2024/02/22 11:40:26;;;;;;;7.30;6.17;;;;;;;;;;5052947;28;20415;-82
2024/02/22 11:42:55;;;;;;;7.97;5.50;;;;;;;;;;5058885;28;20923;-80
2024/02/22 11:45:21;;;;;;;10.07;5.77;;;;;;;;;;5056542;28;20475;-81
2024/02/22 11:47:47;;;;;;;9.90;6.57;;;;;;;;;;5052444;28;20420;-78
2024/02/22 11:50:14;;;;;;;10.13;6.77;;;;;;;;;;5052517;28;20412;-78
2024/02/22 11:52:40;;;;;;;9.43;6.87;;;;;;;;;;5052110;28;20557;-78
2024/02/22 11:55:15;;;;;;;10.80;6.93;;;;;;;;;;5052494;28;20450;-77
2024/02/22 11:57:42;;;;;;;12.50;7.07;;;;;;;;;;5051189;28;20931;-79
2024/02/22 12:00:08;;;;;;;10.60;7.40;;;;;;;;;;5052395;28;20549;-78
2024/02/22 12:02:34;;;;;;;18.20;8.07;;;;;;;;;;5052456;28;20886;-79
2024/02/22 12:05:00;;;;;;;8.47;6.70;;;;;;;;;;5052437;28;20910;-83
2024/02/22 12:07:28;;;;;;;5.60;3.50;;;;;;;;;;5052050;28;20479;-80
2024/02/22 12:09:57;;;;;;;5.20;3.57;;;;;;;;;;5052380;28;20399;-77
2024/02/22 12:12:26;;;;;;;5.00;3.50;;;;;;;;;;5052147;28;20506;-80
2024/02/22 12:14:59;;;;;;;5.17;3.57;;;;;;;;;;5052255;28;20577;-75
2024/02/22 12:17:28;;;;;;;8.40;4.83;;;;;;;;;;5052202;28;20405;-77
2024/02/22 12:19:55;;;;;;;10.03;4.97;;;;;;;;;;5057435;28;20417;-83
2024/02/22 12:22:21;;;;;;;7.40;3.60;;;;;;;;;;5051870;28;20771;-78
2024/02/22 12:24:48;;;;;;;7.10;4.30;;;;;;;;;;5052180;28;20410;-78
2024/02/22 12:27:14;;;;;;;3.90;3.10;;;;;;;;;;5052087;28;20754;-81
2024/02/22 12:29:40;;;;;;;11.80;4.87;;;;;;;;;;5050593;28;20931;-78
2024/02/22 12:32:06;;;;;;;5.47;3.30;;;;;;;;;;5051925;28;20842;-79
2024/02/22 12:34:33;;;;;;;4.90;3.20;;;;;;;;;;5052179;28;20494;-79
2024/02/22 12:36:59;;;;;;;6.40;3.43;;;;;;;;;;5054455;28;20418;-77
2024/02/22 12:39:26;;;;;;;5.93;4.30;;;;;;;;;;5059908;28;20423;-79
2024/02/22 12:41:52;;;;;;;6.63;4.50;;;;;;;;;;5052012;28;20484;-78
2024/02/22 12:44:18;;;;;;;6.80;5.10;;;;;;;;;;5051971;28;20510;-80
2024/02/22 12:46:45;;;;;;;8.07;4.90;;;;;;;;;;5052008;28;20415;-80
2024/02/22 12:49:11;;;;;;;7.93;4.40;;;;;;;;;;5051939;28;20524;-78
2024/02/22 12:51:37;;;;;;;9.30;5.73;;;;;;;;;;5055111;28;21001;-78
2024/02/22 12:54:03;;;;;;;8.30;5.50;;;;;;;;;;5055446;28;20481;-82
2024/02/22 12:56:29;;;;;;;10.17;6.57;;;;;;;;;;5055527;28;20398;-77
2024/02/22 12:58:55;;;;;;;6.67;5.67;;;;;;;;;;5055432;28;20414;-83
2024/02/22 13:01:21;;;;;;;8.17;6.40;;;;;;;;;;5055642;28;20397;-79
2024/02/22 13:03:47;;;;;;;7.53;6.27;;;;;;;;;;5055421;28;20186;-78
2024/02/22 13:06:14;;;;;;;7.70;6.17;;;;;;;;;;5061117;28;20766;-80
2024/02/22 13:08:41;;;;;;;11.40;6.30;;;;;;;;;;5064984;28;20409;-79
2024/02/22 13:11:07;;;;;;;7.67;6.13;;;;;;;;;;5063298;28;20402;-84
2024/02/22 13:13:33;;;;;;;9.80;6.67;;;;;;;;;;5054792;28;20584;-84
2024/02/22 13:16:03;;;;;;;7.10;5.10;;;;;;;;;;5054949;28;20416;-82
2024/02/22 13:18:32;;;;;;;6.30;4.40;;;;;;;;;;5055017;28;20929;-82
2024/02/22 13:20:58;;;;;;;11.30;6.13;;;;;;;;;;5054940;28;20496;-83
2024/02/22 13:23:24;;;;;;;8.50;7.60;;;;;;;;;;5054826;28;20453;-81
2024/02/22 13:25:50;;;;;;;7.03;6.10;;;;;;;;;;5054936;28;20738;-83
2024/02/22 13:28:16;;;;;;;8.30;6.87;;;;;;;;;;5054615;28;20540;-81
2024/02/22 13:30:42;;;;;;;7.73;5.30;;;;;;;;;;5054226;28;20980;-80
2024/02/22 13:33:08;;;;;;;8.63;5.37;;;;;;;;;;5053123;28;20885;-79
2024/02/22 13:35:34;;;;;;;10.07;6.53;;;;;;;;;;5054768;28;20423;-78
2024/02/22 13:38:00;;;;;;;9.33;5.00;;;;;;;;;;5050611;28;20435;-81
2024/02/22 13:40:27;;;;;;;10.13;5.37;;;;;;;;;;5046826;28;20428;-83
2024/02/22 13:42:53;;;;;;;6.00;4.50;;;;;;;;;;5027403;28;20429;-78
2024/02/22 13:45:19;;;;;;;8.60;5.30;;;;;;;;;;5034370;28;20410;-81
2024/02/22 13:47:49;;;;;;;5.10;3.80;;;;;;;;;;5016809;28;20414;-85
2024/02/22 13:50:16;;;;;;;6.17;4.07;;;;;;;;;;5014042;28;20410;-85
2024/02/22 13:52:52;;;;;;;9.50;5.17;;;;;;;;;;5033733;28;20989;-82
2024/02/22 13:55:18;;;;;;;4.50;3.93;;;;;;;;;;5042667;28;20436;-79
2024/02/22 13:57:44;;;;;;;7.33;4.83;;;;;;;;;;5036165;28;20412;-79
2024/02/22 14:00:10;;;;;;;6.40;4.40;;;;;;;;;;5053658;28;20948;-85
2024/02/22 14:02:38;;;;;;;6.07;4.40;;;;;;;;;;5034934;28;20497;-82
2024/02/22 14:05:04;;;;;;;6.87;4.50;;;;;;;;;;5053829;28;20760;-81
2024/02/22 14:07:31;;;;;;;6.57;3.10;;;;;;;;;;5058520;28;20826;-82
2024/02/22 14:09:58;;;;;;;5.33;3.50;;;;;;;;;;5067532;28;20433;-82
2024/02/22 14:12:24;;;;;;;5.50;2.90;;;;;;;;;;5063568;28;20423;-78
2024/02/22 14:14:50;;;;;;;5.37;2.77;;;;;;;;;;5062874;28;20441;-80
2024/02/22 14:17:16;;;;;;;3.30;2.67;;;;;;;;;;5062709;28;20452;-84
2024/02/22 14:19:42;;;;;;;5.47;2.80;;;;;;;;;;5062387;28;20429;-80
2024/02/22 14:22:07;;;;;;;4.03;2.53;;;;;;;;;;5060860;28;20471;-80
2024/02/22 14:24:34;;;;;;;4.87;3.10;;;;;;;;;;5052405;28;20421;-81
2024/02/22 14:27:00;;;;;;;4.60;2.77;;;;;;;;;;5053342;28;20486;-79
2024/02/22 14:29:25;;;;;;;4.73;2.93;;;;;;;;;;5053433;28;20414;-80
2024/02/22 14:31:53;;;;;;;3.73;3.10;;;;;;;;;;5064044;28;20521;-82
2024/02/22 14:34:20;;;;;;;4.37;3.30;;;;;;;;;;5050765;28;20481;-78
2024/02/22 14:36:46;;;;;;;6.93;3.50;;;;;;;;;;5032580;28;20427;-83
2024/02/22 14:39:12;;;;;;;5.00;2.10;;;;;;;;;;5034008;28;20420;-82
2024/02/22 14:41:38;;;;;;;6.57;2.50;;;;;;;;;;5053157;28;20413;-79